Time;durP1;ratioP1;P1;durP2;ratioP2;P2;SDS_P1;SDS_P2;PMS_P1;PMS_P2;Temp;Humidity;BMP_temperature;BMP_pressure;BME280_temperature;BME280_humidity;BME280_pressure;Samples;Min_cycle;Max_cycle;Signal;HPM_P1;HPM_P2
2022/07/06 00:02:22;;;;;;;5.00;4.60;;;21.20;68.00;;;;;;5093621;28;20482;-67
2022/07/06 00:04:49;;;;;;;4.60;4.27;;;21.20;68.00;;;;;;5093304;28;20486;-67
2022/07/06 00:07:15;;;;;;;4.77;4.47;;;21.20;68.20;;;;;;5093525;28;20495;-68
2022/07/06 00:09:42;;;;;;;4.60;4.30;;;21.10;68.00;;;;;;5093553;28;20486;-68
2022/07/06 00:12:10;;;;;;;5.23;4.37;;;21.10;68.20;;;;;;5094716;28;20498;-67
2022/07/06 00:14:37;;;;;;;4.73;4.37;;;21.10;69.60;;;;;;5094490;28;20471;-67
2022/07/06 00:17:05;;;;;;;4.30;4.10;;;21.10;68.70;;;;;;5094685;28;20523;-67
2022/07/06 00:19:32;;;;;;;6.10;4.57;;;21.10;69.30;;;;;;5094276;28;20507;-67
2022/07/06 00:21:59;;;;;;;5.17;4.77;;;21.10;68.70;;;;;;5094336;28;21018;-67
2022/07/06 00:24:26;;;;;;;4.50;4.20;;;21.10;69.60;;;;;;5094238;28;20485;-67
2022/07/06 00:26:53;;;;;;;4.93;4.60;;;21.10;70.10;;;;;;5094506;28;20523;-67
2022/07/06 00:29:20;;;;;;;5.83;5.23;;;21.10;70.00;;;;;;5094439;28;20471;-67
2022/07/06 00:31:47;;;;;;;4.93;4.60;;;21.10;71.60;;;;;;5094079;28;20475;-67
2022/07/06 00:34:15;;;;;;;5.07;4.67;;;21.00;71.50;;;;;;5094152;28;20530;-67
2022/07/06 00:36:42;;;;;;;5.33;4.87;;;20.80;71.40;;;;;;5094332;28;20443;-67
2022/07/06 00:39:09;;;;;;;4.63;4.30;;;20.80;72.60;;;;;;5094222;28;20564;-67
2022/07/06 00:41:36;;;;;;;4.90;4.50;;;20.80;72.60;;;;;;5094216;28;20507;-67
2022/07/06 00:44:09;;;;;;;5.43;4.93;;;20.80;73.20;;;;;;5094039;28;20447;-67
2022/07/06 00:46:36;;;;;;;5.13;4.73;;;20.80;73.00;;;;;;5094217;28;20469;-67
2022/07/06 00:49:03;;;;;;;5.07;4.67;;;20.80;73.10;;;;;;5093950;28;20464;-67
2022/07/06 00:51:33;;;;;;;4.97;4.67;;;20.80;73.50;;;;;;5093996;28;20485;-67
2022/07/06 00:54:02;;;;;;;5.00;4.60;;;20.80;73.50;;;;;;5093891;28;20782;-67
2022/07/06 00:56:32;;;;;;;5.10;4.63;;;20.80;73.50;;;;;;5093989;28;20804;-67
2022/07/06 00:58:59;;;;;;;4.90;4.60;;;20.70;74.10;;;;;;5093103;28;20475;-67
2022/07/06 01:01:26;;;;;;;6.07;5.03;;;20.70;74.70;;;;;;5094376;28;20503;-67
2022/07/06 01:03:53;;;;;;;5.90;5.40;;;20.60;74.70;;;;;;5094241;28;20478;-67
2022/07/06 01:06:19;;;;;;;5.07;4.60;;;20.60;74.60;;;;;;5093703;28;20490;-68
2022/07/06 01:08:49;;;;;;;5.20;4.80;;;20.60;73.10;;;;;;5093885;28;20518;-67
2022/07/06 01:11:18;;;;;;;5.20;4.80;;;20.60;75.30;;;;;;5093521;28;20502;-67
2022/07/06 01:13:46;;;;;;;5.73;5.10;;;20.60;74.70;;;;;;5094028;28;20892;-68
2022/07/06 01:16:13;;;;;;;5.50;5.10;;;20.60;74.90;;;;;;5093683;28;20973;-68
2022/07/06 01:18:40;;;;;;;5.10;4.80;;;20.50;75.10;;;;;;5093529;28;20516;-67
2022/07/06 01:21:12;;;;;;;5.00;4.63;;;20.50;74.60;;;;;;5093399;28;20995;-67
2022/07/06 01:23:41;;;;;;;4.90;4.60;;;20.50;74.80;;;;;;5093670;28;20446;-67
2022/07/06 01:26:11;;;;;;;5.67;5.27;;;20.40;74.90;;;;;;5093546;28;20543;-67
2022/07/06 01:28:37;;;;;;;5.47;5.00;;;20.40;74.00;;;;;;5093612;28;20439;-67
2022/07/06 01:31:04;;;;;;;5.40;5.00;;;20.30;74.10;;;;;;5093416;28;20495;-67
2022/07/06 01:33:31;;;;;;;4.60;4.20;;;20.40;74.20;;;;;;5093605;28;20482;-67
2022/07/06 01:35:58;;;;;;;4.97;4.57;;;20.30;73.70;;;;;;5093364;28;20475;-67
2022/07/06 01:38:26;;;;;;;5.07;4.67;;;20.30;74.00;;;;;;5093436;28;20443;-67
2022/07/06 01:40:53;;;;;;;4.50;4.10;;;20.30;73.90;;;;;;5093332;28;20498;-67
2022/07/06 01:43:20;;;;;;;4.53;4.23;;;20.20;74.80;;;;;;5093531;28;20478;-67
2022/07/06 01:45:47;;;;;;;14.20;5.20;;;20.30;74.50;;;;;;5093014;28;20885;-67
2022/07/06 01:48:14;;;;;;;4.73;4.33;;;20.20;75.50;;;;;;5093430;28;20447;-67
2022/07/06 01:50:41;;;;;;;4.67;4.27;;;20.10;74.50;;;;;;5093240;28;20504;-67
2022/07/06 01:53:08;;;;;;;4.30;3.97;;;20.10;74.70;;;;;;5093460;28;20489;-67
2022/07/06 01:55:36;;;;;;;4.50;4.20;;;20.10;75.10;;;;;;5093219;28;20470;-67
2022/07/06 01:58:03;;;;;;;4.17;3.77;;;20.10;74.50;;;;;;5093261;28;20442;-67
2022/07/06 02:00:30;;;;;;;4.63;4.20;;;20.00;76.00;;;;;;5092981;28;20851;-68
2022/07/06 02:02:56;;;;;;;5.07;4.07;;;20.00;75.30;;;;;;5093318;28;20474;-67
2022/07/06 02:05:23;;;;;;;4.40;4.00;;;20.00;75.10;;;;;;5093004;28;20942;-67
2022/07/06 02:07:50;;;;;;;4.67;4.27;;;20.00;75.20;;;;;;5093101;28;20493;-67
2022/07/06 02:10:17;;;;;;;4.00;3.70;;;20.00;75.60;;;;;;5094950;28;20499;-67
2022/07/06 02:12:46;;;;;;;4.40;4.00;;;20.00;75.50;;;;;;5097130;28;20481;-67
2022/07/06 02:15:13;;;;;;;4.20;3.90;;;20.00;76.10;;;;;;5096690;28;20446;-67
2022/07/06 02:17:40;;;;;;;4.27;3.97;;;20.00;76.10;;;;;;5096998;28;20927;-67
2022/07/06 02:20:07;;;;;;;4.40;4.00;;;19.90;75.90;;;;;;5096660;28;20564;-67
2022/07/06 02:22:34;;;;;;;4.10;3.80;;;19.90;76.40;;;;;;5096966;28;20857;-67
2022/07/06 02:25:01;;;;;;;3.80;3.50;;;19.60;76.40;;;;;;5096540;28;20501;-67
2022/07/06 02:27:28;;;;;;;4.33;4.03;;;19.60;77.70;;;;;;5096530;28;20865;-67
2022/07/06 02:29:56;;;;;;;4.30;3.90;;;19.50;77.50;;;;;;5096520;28;20513;-67
2022/07/06 02:32:23;;;;;;;4.63;4.10;;;19.40;77.90;;;;;;5096809;28;20445;-67
2022/07/06 02:34:50;;;;;;;4.87;4.37;;;19.40;78.40;;;;;;5096426;28;20468;-67
2022/07/06 02:37:17;;;;;;;4.50;4.20;;;19.40;78.80;;;;;;5096798;28;20508;-67
2022/07/06 02:39:44;;;;;;;5.50;4.25;;;19.40;79.20;;;;;;5097126;28;20512;-67
2022/07/06 02:42:11;;;;;;;4.50;4.10;;;19.40;79.30;;;;;;5097325;28;20261;-67
2022/07/06 02:44:38;;;;;;;4.70;4.30;;;19.40;79.00;;;;;;5096227;28;20202;-67
2022/07/06 02:47:06;;;;;;;4.60;4.20;;;19.30;79.70;;;;;;5096288;28;20473;-67
2022/07/06 02:49:33;;;;;;;4.43;4.10;;;19.30;80.10;;;;;;5096292;28;20560;-67
2022/07/06 02:52:00;;;;;;;5.18;4.78;;;19.20;80.20;;;;;;5096389;28;20261;-67
2022/07/06 02:54:27;;;;;;;4.55;4.20;;;19.10;81.30;;;;;;5096083;28;20302;-67
2022/07/06 02:56:54;;;;;;;5.03;4.63;;;19.10;81.70;;;;;;5096297;28;20293;-67
2022/07/06 02:59:21;;;;;;;5.20;4.70;;;19.10;82.20;;;;;;5096062;28;20660;-67
2022/07/06 03:01:48;;;;;;;5.10;4.70;;;19.10;82.20;;;;;;5096202;28;20262;-67
2022/07/06 03:04:16;;;;;;;4.50;4.20;;;19.10;82.60;;;;;;5095681;28;20706;-67
2022/07/06 03:06:43;;;;;;;5.10;4.60;;;19.10;82.90;;;;;;5095841;28;20684;-67
2022/07/06 03:09:09;;;;;;;5.22;4.82;;;19.10;83.50;;;;;;5095770;28;20235;-67
2022/07/06 03:11:36;;;;;;;4.83;4.53;;;19.10;83.80;;;;;;5095924;28;20266;-67
2022/07/06 03:14:04;;;;;;;5.15;4.68;;;19.10;83.40;;;;;;5095794;28;20448;-67
2022/07/06 03:16:31;;;;;;;4.90;4.53;;;19.00;83.10;;;;;;5095885;28;20199;-67
2022/07/06 03:18:58;;;;;;;6.15;5.00;;;19.00;83.70;;;;;;5095750;28;20235;-67
2022/07/06 03:21:26;;;;;;;6.00;5.50;;;19.00;83.80;;;;;;5094591;28;20255;-67
2022/07/06 03:23:53;;;;;;;5.18;4.78;;;19.10;84.00;;;;;;5095339;28;20237;-67
2022/07/06 03:26:20;;;;;;;4.93;4.50;;;19.10;84.60;;;;;;5095720;28;20202;-67
2022/07/06 03:28:47;;;;;;;6.57;6.05;;;19.00;85.00;;;;;;5095670;28;20297;-67
2022/07/06 03:31:14;;;;;;;5.82;5.35;;;18.90;85.30;;;;;;5095550;28;20318;-67
2022/07/06 03:33:40;;;;;;;5.25;4.60;;;19.00;85.90;;;;;;5095295;28;20234;-67
2022/07/06 03:36:08;;;;;;;5.35;4.95;;;19.00;85.20;;;;;;5095469;28;20235;-67
2022/07/06 03:38:36;;;;;;;6.10;5.60;;;19.00;85.80;;;;;;5095242;28;20218;-67
2022/07/06 03:41:03;;;;;;;8.80;5.20;;;19.00;85.50;;;;;;5095036;28;20562;-67
2022/07/06 03:43:30;;;;;;;5.32;4.95;;;19.00;86.10;;;;;;5095350;28;20241;-67
2022/07/06 03:45:57;;;;;;;5.30;4.90;;;19.00;86.10;;;;;;5095168;28;20572;-67
2022/07/06 03:48:24;;;;;;;5.50;5.00;;;19.00;86.50;;;;;;5095272;28;20230;-67
2022/07/06 03:50:51;;;;;;;5.50;5.00;;;19.00;86.50;;;;;;5095238;28;20218;-67
2022/07/06 03:53:18;;;;;;;5.70;5.30;;;19.00;87.00;;;;;;5095227;28;20301;-67
2022/07/06 03:56:27;;;;;;;5.25;4.85;;;18.90;87.50;;;;;;5094853;28;20202;-67
2022/07/06 03:58:33;;;;;;;5.13;4.72;;;18.80;87.00;;;;;;5094978;28;20210;-67
2022/07/06 04:01:00;;;;;;;5.70;5.30;;;18.90;87.50;;;;;;5094735;28;20259;-67
2022/07/06 04:03:27;;;;;;;5.80;5.40;;;18.90;87.60;;;;;;5094943;28;20241;-67
2022/07/06 04:05:54;;;;;;;6.00;5.50;;;18.80;87.60;;;;;;5094788;28;20274;-67
2022/07/06 04:08:21;;;;;;;6.18;5.63;;;18.90;87.50;;;;;;5094715;28;20241;-67
2022/07/06 04:10:49;;;;;;;5.93;5.32;;;18.90;88.00;;;;;;5094981;28;20257;-67
2022/07/06 04:13:16;;;;;;;7.32;6.72;;;18.80;88.40;;;;;;5094913;28;20261;-67
2022/07/06 04:15:43;;;;;;;8.75;7.97;;;18.60;89.00;;;;;;5094389;28;20241;-67
2022/07/06 04:18:10;;;;;;;6.28;5.68;;;18.60;89.70;;;;;;5095458;28;20250;-67
2022/07/06 04:20:37;;;;;;;6.40;5.60;;;18.60;90.00;;;;;;5095434;28;20263;-68
2022/07/06 04:23:05;;;;;;;6.20;5.60;;;18.60;90.10;;;;;;5094788;28;20707;-67
2022/07/06 04:25:31;;;;;;;6.82;6.00;;;18.60;90.80;;;;;;5094385;28;20241;-67
2022/07/06 04:28:00;;;;;;;5.97;5.47;;;18.60;90.80;;;;;;5094481;28;20238;-68
2022/07/06 04:30:27;;;;;;;7.03;6.38;;;18.60;90.90;;;;;;5094234;28;20254;-68
2022/07/06 04:32:55;;;;;;;6.65;6.00;;;18.40;91.00;;;;;;5094388;28;20210;-67
2022/07/06 04:35:22;;;;;;;6.85;6.35;;;18.40;91.40;;;;;;5094257;28;20202;-67
2022/07/06 04:37:49;;;;;;;7.28;6.50;;;18.40;91.50;;;;;;5094422;28;20230;-67
2022/07/06 04:40:16;;;;;;;6.80;6.20;;;18.40;92.10;;;;;;5094191;28;20309;-67
2022/07/06 04:42:43;;;;;;;6.30;5.80;;;18.40;92.70;;;;;;5094293;28;20230;-67
2022/07/06 04:45:12;;;;;;;6.75;6.25;;;18.40;92.80;;;;;;5094073;28;20256;-67
2022/07/06 04:47:39;;;;;;;8.27;7.55;;;18.50;93.00;;;;;;5094205;28;20718;-67
2022/07/06 04:50:06;;;;;;;7.35;6.75;;;18.50;92.90;;;;;;5093837;28;20240;-67
2022/07/06 04:52:33;;;;;;;8.10;7.50;;;18.40;93.00;;;;;;5094163;28;20237;-67
2022/07/06 04:55:00;;;;;;;7.97;7.18;;;18.40;93.60;;;;;;5093770;28;20616;-68
2022/07/06 04:57:29;;;;;;;7.78;7.07;;;18.40;93.30;;;;;;5093756;28;20248;-67
2022/07/06 04:59:56;;;;;;;7.85;7.25;;;18.50;93.20;;;;;;5093861;28;20260;-67
2022/07/06 05:02:24;;;;;;;7.70;6.93;;;18.40;93.40;;;;;;5093750;28;20723;-67
2022/07/06 05:04:51;;;;;;;8.00;7.30;;;18.50;94.10;;;;;;5093714;28;20202;-67
2022/07/06 05:07:18;;;;;;;8.70;7.80;;;18.50;93.80;;;;;;5093691;28;20309;-67
2022/07/06 05:09:45;;;;;;;8.02;7.40;;;18.50;93.70;;;;;;5093847;28;20537;-67
2022/07/06 05:12:12;;;;;;;8.27;7.47;;;18.40;93.70;;;;;;5093511;28;20257;-67
2022/07/06 05:14:39;;;;;;;7.78;7.18;;;18.40;94.50;;;;;;5093446;28;20237;-67
2022/07/06 05:17:06;;;;;;;8.10;7.43;;;18.30;94.70;;;;;;5093698;28;20242;-67
2022/07/06 05:19:34;;;;;;;8.18;7.35;;;18.40;94.80;;;;;;5093551;28;20238;-67
2022/07/06 05:22:01;;;;;;;7.50;7.00;;;18.40;95.20;;;;;;5093397;28;20265;-68
2022/07/06 05:24:28;;;;;;;8.20;7.50;;;18.30;94.80;;;;;;5093469;28;20245;-67
2022/07/06 05:26:55;;;;;;;7.78;7.07;;;18.10;95.40;;;;;;5093697;28;20612;-67
2022/07/06 05:29:21;;;;;;;8.18;7.50;;;18.10;95.80;;;;;;5093504;28;20695;-67
2022/07/06 05:31:48;;;;;;;7.72;6.80;;;18.10;96.20;;;;;;5093290;28;20250;-67
2022/07/06 05:34:15;;;;;;;7.57;7.07;;;18.10;96.10;;;;;;5093339;28;20709;-67
2022/07/06 05:36:43;;;;;;;7.60;6.90;;;18.20;96.30;;;;;;5093588;28;20619;-67
2022/07/06 05:39:10;;;;;;;8.43;7.72;;;18.00;96.10;;;;;;5093487;28;20234;-67
2022/07/06 05:41:37;;;;;;;8.00;7.15;;;18.00;96.10;;;;;;5093464;28;20313;-67
2022/07/06 05:44:04;;;;;;;8.07;7.40;;;18.10;96.20;;;;;;5093360;28;20240;-67
2022/07/06 05:46:31;;;;;;;7.20;6.70;;;18.10;95.90;;;;;;5097404;28;20663;-67
2022/07/06 05:51:44;;;;;;;7.75;7.15;;;18.10;96.20;;;;;;5097571;28;20258;-67
2022/07/06 05:54:11;;;;;;;7.35;6.70;;;18.10;96.20;;;;;;5097287;28;20206;-67
2022/07/06 05:56:37;;;;;;;7.82;7.22;;;18.10;96.40;;;;;;5097481;28;20316;-67
2022/07/06 05:59:04;;;;;;;7.97;7.28;;;18.10;96.60;;;;;;5098000;28;20202;-67
2022/07/06 06:01:31;;;;;;;7.18;6.50;;;18.10;96.40;;;;;;5098188;28;20269;-67
2022/07/06 06:03:59;;;;;;;7.25;6.70;;;18.10;96.40;;;;;;5097320;28;20240;-67
2022/07/06 06:06:26;;;;;;;7.00;6.40;;;18.10;96.60;;;;;;5096899;28;20228;-67
2022/07/06 06:08:54;;;;;;;7.57;6.97;;;18.10;97.10;;;;;;5097345;28;20611;-67
2022/07/06 06:11:21;;;;;;;7.80;7.20;;;18.10;96.60;;;;;;5097170;28;20643;-67
2022/07/06 06:13:48;;;;;;;7.85;7.15;;;18.00;96.80;;;;;;5096872;28;20202;-68
2022/07/06 06:16:16;;;;;;;7.65;7.13;;;18.00;97.40;;;;;;5096976;28;20675;-68
2022/07/06 06:18:43;;;;;;;8.23;7.40;;;18.10;97.60;;;;;;5097042;28;20206;-67
2022/07/06 06:21:11;;;;;;;7.60;7.00;;;18.10;97.80;;;;;;5096935;28;20313;-67
2022/07/06 06:23:37;;;;;;;7.40;6.70;;;18.30;97.50;;;;;;5096906;28;20213;-67
2022/07/06 06:26:06;;;;;;;7.47;6.97;;;18.30;97.10;;;;;;5096757;28;20229;-67
2022/07/06 06:28:33;;;;;;;7.28;6.68;;;18.30;96.10;;;;;;5096798;28;20237;-67
2022/07/06 06:31:00;;;;;;;8.10;7.30;;;18.20;96.10;;;;;;5096467;28;20247;-67
2022/07/06 06:33:27;;;;;;;7.50;6.80;;;18.30;96.40;;;;;;5096783;28;20301;-67
2022/07/06 06:35:54;;;;;;;8.63;7.00;;;18.20;96.30;;;;;;5096566;28;20237;-67
2022/07/06 06:38:25;;;;;;;7.75;7.15;;;18.30;96.50;;;;;;5096667;28;20209;-67
2022/07/06 06:40:53;;;;;;;7.53;6.93;;;18.40;96.40;;;;;;5096366;28;20238;-67
2022/07/06 06:43:21;;;;;;;7.53;6.93;;;18.40;96.30;;;;;;5096291;28;20206;-67
2022/07/06 06:45:48;;;;;;;6.72;6.22;;;18.60;96.40;;;;;;5096113;28;20293;-67
2022/07/06 06:48:15;;;;;;;6.25;5.82;;;18.90;95.90;;;;;;5097040;28;20209;-67
2022/07/06 06:50:42;;;;;;;6.73;6.03;;;19.20;96.10;;;;;;5096349;28;20256;-67
2022/07/06 06:53:09;;;;;;;7.70;7.10;;;19.50;95.20;;;;;;5096369;28;20521;-67
2022/07/06 06:55:36;;;;;;;7.07;6.40;;;19.60;94.40;;;;;;5095645;28;20868;-67
2022/07/06 06:58:03;;;;;;;7.37;6.67;;;19.70;94.00;;;;;;5095542;28;20474;-67
2022/07/06 07:00:31;;;;;;;7.40;6.80;;;19.70;93.70;;;;;;5095835;28;21010;-67
2022/07/06 07:02:58;;;;;;;6.57;6.07;;;19.70;93.50;;;;;;5096273;28;20477;-67
2022/07/06 07:05:25;;;;;;;8.38;7.68;;;19.80;94.00;;;;;;5096020;28;20529;-68
2022/07/06 07:07:54;;;;;;;7.65;6.95;;;19.60;93.80;;;;;;5095956;28;20226;-67
2022/07/06 07:10:21;;;;;;;7.13;6.40;;;19.30;93.80;;;;;;5095911;28;20228;-67
2022/07/06 07:12:49;;;;;;;7.90;7.10;;;19.30;93.90;;;;;;5095779;28;20217;-67
2022/07/06 07:15:17;;;;;;;6.53;5.97;;;19.40;93.90;;;;;;5095616;28;20213;-67
2022/07/06 07:17:45;;;;;;;6.13;5.53;;;19.70;94.20;;;;;;5095670;28;20485;-67
2022/07/06 07:20:13;;;;;;;7.07;6.37;;;20.20;93.90;;;;;;5095661;28;20449;-67
2022/07/06 07:22:40;;;;;;;6.60;6.10;;;20.80;92.30;;;;;;5095887;28;20479;-68
2022/07/06 07:25:07;;;;;;;7.03;6.03;;;21.40;91.60;;;;;;5095418;28;20479;-67
2022/07/06 07:27:34;;;;;;;5.93;5.53;;;21.80;89.70;;;;;;5095626;28;20945;-67
2022/07/06 07:30:01;;;;;;;7.00;6.43;;;21.60;89.90;;;;;;5095746;28;20490;-67
2022/07/06 07:32:28;;;;;;;6.43;5.87;;;21.20;89.70;;;;;;5096080;28;20475;-67
2022/07/06 07:34:57;;;;;;;7.07;6.40;;;21.00;91.10;;;;;;5095899;28;20470;-68
2022/07/06 07:37:23;;;;;;;7.47;6.90;;;20.80;90.60;;;;;;5096256;28;20924;-70
2022/07/06 07:39:50;;;;;;;6.83;6.23;;;20.40;90.90;;;;;;5102600;28;20486;-66
2022/07/06 07:42:17;;;;;;;7.40;6.70;;;20.20;91.60;;;;;;5094834;28;20572;-66
2022/07/06 07:44:44;;;;;;;6.97;6.47;;;20.20;91.30;;;;;;5094262;28;20450;-67
2022/07/06 07:47:11;;;;;;;7.27;6.63;;;20.20;91.50;;;;;;5094130;28;20894;-67
2022/07/06 07:49:38;;;;;;;7.60;6.90;;;20.00;91.50;;;;;;5093864;28;20487;-67
2022/07/06 07:52:06;;;;;;;6.80;6.20;;;20.00;92.00;;;;;;5093203;28;20491;-66
2022/07/06 07:54:33;;;;;;;6.57;6.07;;;20.60;91.20;;;;;;5093605;28;20832;-67
2022/07/06 07:57:00;;;;;;;7.20;6.50;;;21.40;90.20;;;;;;5094176;28;20471;-66
2022/07/06 07:59:27;;;;;;;6.53;6.03;;;22.40;87.10;;;;;;5093761;28;20483;-66
2022/07/06 08:01:54;;;;;;;6.70;6.20;;;23.20;83.70;;;;;;5093454;28;20569;-68
2022/07/06 08:04:21;;;;;;;6.27;5.77;;;24.30;80.40;;;;;;5093421;28;20440;-67
2022/07/06 08:06:48;;;;;;;6.07;5.53;;;24.80;78.00;;;;;;5093649;28;20452;-67
2022/07/06 08:09:18;;;;;;;5.30;4.90;;;25.50;75.60;;;;;;5093133;28;20502;-67
2022/07/06 08:11:45;;;;;;;6.57;6.07;;;25.20;71.80;;;;;;5093466;28;20470;-69
2022/07/06 08:14:14;;;;;;;6.20;5.67;;;25.10;72.60;;;;;;5093686;28;20533;-68
2022/07/06 08:16:41;;;;;;;6.47;6.07;;;24.40;75.30;;;;;;5094916;28;20441;-69
2022/07/06 08:19:07;;;;;;;6.57;5.90;;;23.80;78.00;;;;;;5094763;28;20490;-68
2022/07/06 08:21:34;;;;;;;7.00;6.40;;;23.50;79.80;;;;;;5094397;28;20864;-68
2022/07/06 08:24:01;;;;;;;6.80;6.30;;;23.40;80.00;;;;;;5094535;28;20577;-69
2022/07/06 08:26:30;;;;;;;7.33;6.80;;;23.50;79.20;;;;;;5094581;28;20443;-68
2022/07/06 08:28:57;;;;;;;6.63;6.13;;;23.20;78.10;;;;;;5094529;28;20441;-68
2022/07/06 08:31:24;;;;;;;6.10;5.70;;;23.30;77.70;;;;;;5094255;28;20500;-68
2022/07/06 08:33:53;;;;;;;5.43;5.03;;;23.20;79.00;;;;;;5094052;28;20536;-68
2022/07/06 08:36:20;;;;;;;6.57;5.83;;;23.30;77.60;;;;;;5094405;28;20469;-68
2022/07/06 08:38:46;;;;;;;8.33;6.13;;;23.40;78.90;;;;;;5094419;28;20468;-68
2022/07/06 08:41:15;;;;;;;7.17;6.57;;;23.70;78.10;;;;;;5094272;28;20522;-68
2022/07/06 08:43:43;;;;;;;6.20;5.80;;;24.10;76.60;;;;;;5094290;28;20474;-69
2022/07/06 08:46:13;;;;;;;6.80;5.37;;;24.60;75.10;;;;;;5094217;28;20850;-69
2022/07/06 08:48:42;;;;;;;5.53;5.03;;;25.40;74.80;;;;;;5094192;28;20480;-69
2022/07/06 08:51:09;;;;;;;6.73;6.23;;;26.10;71.00;;;;;;5093952;28;20467;-69
2022/07/06 08:53:36;;;;;;;6.27;5.80;;;26.10;68.90;;;;;;5094093;28;20443;-69
2022/07/06 08:56:03;;;;;;;6.30;5.80;;;26.60;67.30;;;;;;5093863;28;20934;-69
2022/07/06 08:58:31;;;;;;;6.40;5.90;;;27.00;66.40;;;;;;5094069;28;20471;-69
2022/07/06 09:01:00;;;;;;;5.73;5.30;;;26.40;66.30;;;;;;5093799;28;20544;-69
2022/07/06 09:03:27;;;;;;;6.63;6.13;;;26.30;68.70;;;;;;5094074;28;20779;-69
2022/07/06 09:06:00;;;;;;;5.80;5.40;;;28.10;63.30;;;;;;5093842;28;20472;-69
2022/07/06 09:08:28;;;;;;;6.63;6.03;;;29.80;57.90;;;;;;5093971;28;20440;-69
2022/07/06 09:10:55;;;;;;;6.97;6.37;;;30.40;54.70;;;;;;5093875;28;20452;-69
2022/07/06 09:13:22;;;;;;;6.60;5.97;;;29.00;56.20;;;;;;5093969;28;20529;-69
2022/07/06 09:15:49;;;;;;;6.43;5.93;;;28.50;57.40;;;;;;5093741;28;20834;-69
2022/07/06 09:18:17;;;;;;;5.90;5.50;;;28.20;58.30;;;;;;5093683;28;20952;-69
2022/07/06 09:20:44;;;;;;;5.60;5.20;;;28.80;57.80;;;;;;5092732;28;20817;-69
2022/07/06 09:23:15;;;;;;;6.10;5.50;;;29.80;55.60;;;;;;5093935;28;20877;-69
2022/07/06 09:25:42;;;;;;;6.27;5.87;;;30.20;54.10;;;;;;5093515;28;20478;-69
2022/07/06 09:28:09;;;;;;;6.67;6.17;;;29.80;53.10;;;;;;5093675;28;20968;-70
2022/07/06 09:30:39;;;;;;;6.70;6.20;;;29.50;54.00;;;;;;5093688;28;20499;-69
2022/07/06 09:33:09;;;;;;;6.50;6.10;;;29.20;54.50;;;;;;5093433;28;20451;-69
2022/07/06 09:35:39;;;;;;;5.73;5.33;;;29.10;54.00;;;;;;5093491;28;20497;-69
2022/07/06 09:38:08;;;;;;;6.77;6.30;;;28.90;55.60;;;;;;5093746;28;20818;-69
2022/07/06 09:40:36;;;;;;;5.80;5.40;;;30.50;53.30;;;;;;5093544;28;20460;-69
2022/07/06 09:43:10;;;;;;;5.70;5.20;;;30.70;51.20;;;;;;5093727;28;20906;-70
2022/07/06 09:45:38;;;;;;;5.90;5.50;;;31.30;51.00;;;;;;5093683;28;20451;-69
2022/07/06 09:48:12;;;;;;;6.10;5.70;;;31.40;49.50;;;;;;5093651;28;20440;-70
2022/07/06 09:50:45;;;;;;;5.60;5.20;;;29.90;51.50;;;;;;5093468;28;20496;-70
2022/07/06 09:53:13;;;;;;;5.73;5.23;;;29.80;52.10;;;;;;5093517;28;20783;-70
2022/07/06 09:55:43;;;;;;;5.87;5.47;;;29.70;52.40;;;;;;5093250;28;20492;-70
2022/07/06 09:58:10;;;;;;;6.40;5.77;;;28.70;53.10;;;;;;5093515;28;20454;-69
2022/07/06 10:00:37;;;;;;;6.93;5.50;;;28.40;54.30;;;;;;5093361;28;20859;-69
2022/07/06 10:03:05;;;;;;;5.43;5.03;;;28.30;55.40;;;;;;5093088;28;20479;-69
2022/07/06 10:05:33;;;;;;;6.10;5.50;;;28.80;55.00;;;;;;5093021;28;20478;-69
2022/07/06 10:08:05;;;;;;;5.67;5.27;;;29.30;53.40;;;;;;5093026;28;20455;-69
2022/07/06 10:10:33;;;;;;;6.20;5.80;;;28.80;54.70;;;;;;5093068;28;20482;-70
2022/07/06 10:13:01;;;;;;;6.97;6.00;;;28.90;54.40;;;;;;5093385;28;20472;-70
2022/07/06 10:15:31;;;;;;;5.80;5.30;;;28.90;53.70;;;;;;5093056;28;20979;-70
2022/07/06 10:17:59;;;;;;;5.50;5.07;;;29.40;55.20;;;;;;5093369;28;20454;-70
2022/07/06 10:20:30;;;;;;;5.33;4.93;;;30.50;51.70;;;;;;5093278;28;20889;-70
2022/07/06 10:22:59;;;;;;;6.13;5.63;;;30.80;50.10;;;;;;5093189;28;20903;-70
2022/07/06 10:25:28;;;;;;;6.47;5.90;;;30.90;47.70;;;;;;5093079;28;20444;-70
2022/07/06 10:27:56;;;;;;;5.53;5.13;;;29.70;50.10;;;;;;5093111;28;20537;-70
2022/07/06 10:30:25;;;;;;;5.77;5.37;;;28.30;53.10;;;;;;5093599;28;20507;-70
2022/07/06 10:32:52;;;;;;;5.40;5.00;;;27.50;54.10;;;;;;5096564;28;20479;-69
2022/07/06 10:35:20;;;;;;;6.50;6.00;;;27.00;56.30;;;;;;5096710;28;20490;-70
2022/07/06 10:38:03;;;;;;;5.70;5.30;;;26.80;57.90;;;;;;5096645;28;20470;-69
2022/07/06 10:43:19;;;;;;;6.13;5.73;;;26.80;57.80;;;;;;5096739;28;20482;-69
2022/07/06 10:45:53;;;;;;;6.00;5.60;;;26.40;59.40;;;;;;5096449;28;20440;-69
2022/07/06 10:48:22;;;;;;;6.20;5.70;;;26.00;59.00;;;;;;5096388;28;20475;-69
2022/07/06 10:50:51;;;;;;;5.70;5.20;;;25.60;60.70;;;;;;5096364;28;20471;-69
2022/07/06 10:53:22;;;;;;;6.13;5.70;;;25.20;60.80;;;;;;5096247;28;20447;-70
2022/07/06 10:55:51;;;;;;;6.50;5.80;;;25.00;62.90;;;;;;5095980;28;20440;-69
2022/07/06 10:58:37;;;;;;;6.80;6.30;;;24.90;62.70;;;;;;5096342;28;20448;-69
2022/07/06 11:01:05;;;;;;;6.20;5.70;;;24.60;63.20;;;;;;5096156;28;20494;-69
2022/07/06 11:03:37;;;;;;;5.83;5.37;;;24.70;64.80;;;;;;5095855;28;20532;-70
2022/07/06 11:06:08;;;;;;;6.00;5.50;;;25.20;65.50;;;;;;5095857;28;20479;-70
2022/07/06 11:08:50;;;;;;;5.00;4.70;;;25.40;62.00;;;;;;5096051;28;20476;-69
2022/07/06 11:11:19;;;;;;;5.33;4.97;;;25.70;65.20;;;;;;5096160;28;20499;-69
2022/07/06 11:13:59;;;;;;;6.13;5.73;;;26.10;62.60;;;;;;5096118;28;20872;-71
2022/07/06 11:16:27;;;;;;;6.40;5.90;;;25.60;60.90;;;;;;5096140;28;20475;-70
2022/07/06 11:19:02;;;;;;;5.87;5.30;;;25.50;61.40;;;;;;5096022;28;20449;-70
2022/07/06 11:21:41;;;;;;;6.37;5.77;;;25.40;62.90;;;;;;5095907;28;20502;-69
2022/07/06 11:24:09;;;;;;;6.20;5.70;;;25.40;64.00;;;;;;5095734;28;20458;-69
2022/07/06 11:26:38;;;;;;;6.80;6.20;;;25.60;61.60;;;;;;5095941;28;20472;-69
2022/07/06 11:29:06;;;;;;;6.80;6.13;;;25.70;63.60;;;;;;5095716;28;20476;-70
2022/07/06 11:31:38;;;;;;;6.40;5.90;;;25.70;64.30;;;;;;5095896;28;20821;-69
2022/07/06 11:34:07;;;;;;;6.20;5.70;;;25.80;62.60;;;;;;5095449;28;20476;-69
2022/07/06 11:36:35;;;;;;;6.13;5.63;;;25.80;61.70;;;;;;5095662;28;20468;-69
2022/07/06 11:39:02;;;;;;;6.30;5.80;;;25.50;61.10;;;;;;5095592;28;20485;-69
2022/07/06 11:41:29;;;;;;;6.80;6.20;;;25.10;62.00;;;;;;5095185;28;20461;-70
2022/07/06 11:43:58;;;;;;;10.63;6.50;;;24.50;64.80;;;;;;5094526;28;20482;-69
2022/07/06 11:46:27;;;;;;;6.30;5.80;;;24.00;67.40;;;;;;5095201;28;20446;-69
2022/07/06 11:48:56;;;;;;;6.60;6.00;;;23.90;69.60;;;;;;5095253;28;20947;-69
2022/07/06 11:51:24;;;;;;;5.60;5.20;;;24.10;69.90;;;;;;5095260;28;20467;-69
2022/07/06 11:53:52;;;;;;;6.77;6.23;;;24.40;69.10;;;;;;5095373;28;20458;-70
2022/07/06 11:56:21;;;;;;;7.30;6.60;;;24.80;66.00;;;;;;5095073;28;20941;-69
2022/07/06 11:58:50;;;;;;;7.83;6.70;;;24.90;66.50;;;;;;5095217;28;20452;-69
2022/07/06 12:01:19;;;;;;;7.90;7.00;;;24.80;66.10;;;;;;5095007;28;20502;-69
2022/07/06 12:03:46;;;;;;;6.87;6.10;;;24.60;66.10;;;;;;5095052;28;20464;-69
2022/07/06 12:06:16;;;;;;;7.00;6.40;;;24.50;67.40;;;;;;5094918;28;20487;-69
2022/07/06 12:08:44;;;;;;;7.57;6.87;;;24.50;69.80;;;;;;5095033;28;20815;-69
2022/07/06 12:11:11;;;;;;;7.27;6.67;;;24.00;68.20;;;;;;5094929;28;20496;-69
2022/07/06 12:13:40;;;;;;;6.50;5.90;;;24.00;68.80;;;;;;5094930;28;20435;-69
2022/07/06 12:16:11;;;;;;;7.20;6.67;;;24.10;69.10;;;;;;5094782;28;20450;-69
2022/07/06 12:18:40;;;;;;;7.80;5.90;;;23.80;68.40;;;;;;5094769;28;20440;-69
2022/07/06 12:21:12;;;;;;;6.53;6.00;;;23.70;71.60;;;;;;5094574;28;20527;-69
2022/07/06 12:23:41;;;;;;;5.93;5.43;;;23.60;71.40;;;;;;5094678;28;20486;-69
2022/07/06 12:26:09;;;;;;;7.17;6.57;;;23.80;72.90;;;;;;5094693;28;20543;-69
2022/07/06 12:28:36;;;;;;;7.67;7.17;;;24.10;69.30;;;;;;5094642;28;20437;-69
2022/07/06 12:31:03;;;;;;;7.37;6.10;;;23.80;69.80;;;;;;5094548;28;20497;-69
2022/07/06 12:33:30;;;;;;;6.70;6.10;;;23.80;70.20;;;;;;5094519;28;20474;-69
2022/07/06 12:36:10;;;;;;;6.50;6.00;;;24.20;71.70;;;;;;5094116;28;20483;-69
2022/07/06 12:38:44;;;;;;;7.50;6.77;;;24.40;69.70;;;;;;5094509;28;20471;-69
2022/07/06 12:41:11;;;;;;;8.03;7.23;;;24.20;67.80;;;;;;5094270;28;20478;-69
2022/07/06 12:43:39;;;;;;;7.13;6.30;;;24.10;69.20;;;;;;5094378;28;20480;-69
2022/07/06 12:46:29;;;;;;;6.80;6.27;;;24.00;69.70;;;;;;5094114;28;20912;-69
2022/07/06 12:48:56;;;;;;;6.80;6.30;;;23.40;70.40;;;;;;5094111;28;20494;-69
2022/07/06 12:51:25;;;;;;;7.70;7.10;;;23.00;71.90;;;;;;5094469;28;20470;-69
2022/07/06 12:53:52;;;;;;;6.97;6.37;;;22.90;72.00;;;;;;5093962;28;20479;-69
2022/07/06 12:56:19;;;;;;;6.53;6.03;;;22.90;72.00;;;;;;5094056;28;20540;-69
2022/07/06 12:58:59;;;;;;;6.97;6.43;;;22.60;72.90;;;;;;5093865;28;20531;-69